Time;durP1;ratioP1;P1;durP2;ratioP2;P2;SDS_P1;SDS_P2;PMS_P1;PMS_P2;Temp;Humidity;BMP_temperature;BMP_pressure;BME280_temperature;BME280_humidity;BME280_pressure;Samples;Min_cycle;Max_cycle;Signal;HPM_P1;HPM_P2
2020/12/10 00:00:31;;;;;;;40.75;17.63;;;2.80;94.60;;;;;;5032734;28;20029;-89
2020/12/10 00:02:57;;;;;;;30.58;16.15;;;2.80;94.60;;;;;;5019647;28;20112;-89
2020/12/10 00:05:22;;;;;;;35.97;16.83;;;2.80;94.60;;;;;;5015380;28;20045;-89
2020/12/10 00:07:48;;;;;;;34.75;17.20;;;2.70;94.60;;;;;;5035064;28;20026;-89
2020/12/10 00:10:14;;;;;;;35.05;15.80;;;2.70;94.60;;;;;;5026225;28;20021;-87
2020/12/10 00:12:44;;;;;;;39.75;18.45;;;2.60;94.50;;;;;;5014967;28;20076;-89
2020/12/10 00:15:11;;;;;;;40.75;17.23;;;2.60;94.60;;;;;;5030904;28;20052;-89
2020/12/10 00:17:37;;;;;;;37.40;16.80;;;2.50;94.50;;;;;;5018268;28;20030;-89
2020/12/10 00:20:06;;;;;;;37.55;17.38;;;2.40;94.50;;;;;;5023350;28;20506;-89
2020/12/10 00:22:33;;;;;;;37.03;16.98;;;2.30;94.50;;;;;;5031551;28;20022;-89
2020/12/10 00:24:59;;;;;;;39.08;17.63;;;2.20;94.40;;;;;;5034311;28;20070;-89
2020/12/10 00:27:26;;;;;;;35.50;17.50;;;2.10;94.40;;;;;;5026236;28;20538;-89
2020/12/10 00:29:52;;;;;;;38.35;17.70;;;2.00;94.50;;;;;;5022031;28;20034;-89
2020/12/10 00:32:18;;;;;;;38.83;16.38;;;1.90;94.50;;;;;;5029617;28;20512;-89
2020/12/10 00:34:46;;;;;;;41.72;17.73;;;1.80;94.60;;;;;;5028715;28;20022;-88
2020/12/10 00:37:12;;;;;;;35.35;17.02;;;1.60;94.60;;;;;;5028411;28;20087;-88
2020/12/10 00:39:38;;;;;;;43.50;19.23;;;1.60;94.70;;;;;;5034368;28;20096;-87
2020/12/10 00:42:05;;;;;;;36.05;17.83;;;1.50;94.70;;;;;;5034763;28;20409;-87
2020/12/10 00:44:30;;;;;;;37.88;17.10;;;1.40;94.70;;;;;;5023349;28;20049;-87
2020/12/10 00:46:56;;;;;;;40.05;18.45;;;1.30;94.70;;;;;;5024064;28;20112;-87
2020/12/10 00:49:23;;;;;;;40.88;18.95;;;1.20;94.80;;;;;;5029245;28;20125;-88
2020/12/10 00:51:49;;;;;;;44.20;19.92;;;1.20;94.80;;;;;;5021757;28;20021;-88
2020/12/10 00:54:15;;;;;;;43.42;19.10;;;1.10;94.90;;;;;;5033240;28;20080;-88
2020/12/10 00:56:41;;;;;;;41.75;18.17;;;1.00;94.90;;;;;;5024445;28;20034;-88
2020/12/10 00:59:06;;;;;;;41.85;18.55;;;1.00;95.00;;;;;;5015374;28;20025;-88
2020/12/10 01:01:32;;;;;;;39.67;18.25;;;0.90;95.00;;;;;;5027336;28;20109;-89
2020/12/10 01:03:57;;;;;;;40.25;19.27;;;0.90;95.00;;;;;;5035226;28;20057;-89
2020/12/10 01:06:23;;;;;;;39.88;18.90;;;0.80;95.00;;;;;;5033899;28;20021;-90
2020/12/10 01:08:49;;;;;;;42.97;18.80;;;0.80;95.10;;;;;;5014294;28;20022;-89
2020/12/10 01:11:15;;;;;;;42.78;19.65;;;0.70;95.10;;;;;;5019334;28;20145;-89
2020/12/10 01:13:41;;;;;;;40.50;19.77;;;0.70;95.10;;;;;;5022519;28;20026;-90
2020/12/10 01:16:07;;;;;;;49.53;21.05;;;0.70;95.10;;;;;;5013982;28;20060;-89
2020/12/10 01:18:32;;;;;;;40.53;18.98;;;0.70;95.20;;;;;;5030794;28;20033;-90
2020/12/10 01:20:58;;;;;;;39.75;18.75;;;0.70;95.20;;;;;;5020664;28;20031;-89
2020/12/10 01:23:23;;;;;;;41.03;17.95;;;0.60;95.20;;;;;;5034606;28;20095;-90
2020/12/10 01:25:49;;;;;;;41.85;19.38;;;0.60;95.20;;;;;;5032552;28;20029;-90
2020/12/10 01:28:14;;;;;;;39.55;18.67;;;0.60;95.20;;;;;;5025589;28;20032;-90
2020/12/10 01:30:40;;;;;;;37.03;17.40;;;0.60;95.20;;;;;;5032914;28;20446;-89
2020/12/10 01:33:05;;;;;;;38.78;18.67;;;0.60;95.20;;;;;;5031133;28;20025;-90
2020/12/10 01:35:31;;;;;;;40.05;18.90;;;0.60;95.30;;;;;;5024887;28;20029;-90
2020/12/10 01:37:56;;;;;;;43.97;18.33;;;0.50;95.20;;;;;;5032310;28;20099;-90
2020/12/10 01:40:22;;;;;;;42.08;20.58;;;0.60;95.20;;;;;;5029315;28;20030;-90
2020/12/10 01:42:47;;;;;;;38.53;19.48;;;0.60;95.20;;;;;;5044792;28;20032;-89
2020/12/10 01:45:13;;;;;;;39.00;19.35;;;0.50;95.20;;;;;;5030377;28;20506;-89
2020/12/10 01:47:39;;;;;;;38.40;18.83;;;0.50;95.20;;;;;;5028602;28;20018;-90
2020/12/10 01:50:05;;;;;;;46.10;20.88;;;0.50;95.20;;;;;;5032147;28;20568;-89
2020/12/10 01:52:31;;;;;;;42.50;20.27;;;0.50;95.30;;;;;;5015799;28;20091;-90
2020/12/10 01:54:56;;;;;;;42.45;20.50;;;0.50;95.50;;;;;;5030825;28;20116;-89
2020/12/10 01:57:22;;;;;;;38.58;18.75;;;0.50;95.30;;;;;;5032738;28;20116;-90
2020/12/10 01:59:49;;;;;;;44.88;19.63;;;0.40;95.20;;;;;;5029124;28;20052;-90
2020/12/10 02:02:15;;;;;;;44.17;21.13;;;0.40;95.30;;;;;;5018330;28;20033;-89
2020/12/10 02:04:40;;;;;;;42.92;20.95;;;0.50;95.30;;;;;;5014959;28;20117;-89
2020/12/10 02:07:06;;;;;;;42.97;20.52;;;0.40;95.30;;;;;;5017068;28;20112;-89
2020/12/10 02:09:32;;;;;;;38.30;19.48;;;0.40;95.20;;;;;;5023061;28;20014;-90
2020/12/10 02:11:58;;;;;;;46.65;21.10;;;0.40;95.20;;;;;;5043020;28;20111;-89
2020/12/10 02:14:31;;;;;;;44.63;21.08;;;0.40;95.30;;;;;;5032718;28;20034;-90
2020/12/10 02:16:57;;;;;;;46.17;19.85;;;0.30;95.30;;;;;;5032157;28;20025;-90
2020/12/10 02:19:22;;;;;;;49.30;22.30;;;0.30;95.30;;;;;;5020161;28;20026;-89
2020/12/10 02:21:48;;;;;;;47.78;21.73;;;0.30;95.30;;;;;;5016163;28;20115;-89
2020/12/10 02:24:15;;;;;;;47.17;20.58;;;0.30;95.30;;;;;;5032827;28;20410;-90
2020/12/10 02:26:41;;;;;;;47.17;20.15;;;0.20;95.30;;;;;;5032269;28;20049;-90
2020/12/10 02:29:07;;;;;;;46.10;20.98;;;0.20;95.40;;;;;;5029956;28;20037;-90
2020/12/10 02:31:33;;;;;;;48.00;21.42;;;0.30;95.40;;;;;;5031836;28;20030;-90
2020/12/10 02:34:04;;;;;;;47.40;20.77;;;0.20;95.40;;;;;;5024701;28;20022;-89
2020/12/10 02:36:31;;;;;;;46.38;19.45;;;0.20;95.40;;;;;;5012724;28;20533;-91
2020/12/10 02:38:57;;;;;;;48.50;20.77;;;0.20;95.40;;;;;;5032768;28;20051;-90
2020/12/10 02:41:22;;;;;;;48.83;20.20;;;0.20;95.40;;;;;;5032833;28;20117;-91
2020/12/10 02:43:48;;;;;;;47.78;20.27;;;0.10;95.40;;;;;;5034288;28;20029;-90
2020/12/10 02:46:14;;;;;;;51.15;21.90;;;0.10;95.40;;;;;;5036705;28;20021;-90
2020/12/10 02:48:39;;;;;;;47.55;19.92;;;0.10;95.40;;;;;;5031772;28;20029;-90
2020/12/10 02:51:05;;;;;;;48.05;20.92;;;0.00;95.40;;;;;;5031401;28;20041;-89
2020/12/10 02:53:31;;;;;;;45.05;20.73;;;0.00;95.40;;;;;;5020273;28;20140;-89
2020/12/10 02:55:57;;;;;;;43.28;19.95;;;0.00;95.40;;;;;;5031808;28;20449;-90
2020/12/10 02:58:23;;;;;;;51.25;20.42;;;0.00;95.40;;;;;;5032408;28;20030;-90
2020/12/10 03:00:49;;;;;;;43.90;18.58;;;-0.10;95.50;;;;;;5036806;28;20029;-90
2020/12/10 03:03:15;;;;;;;42.03;19.27;;;-0.10;95.50;;;;;;5035918;28;20057;-90
2020/12/10 03:05:40;;;;;;;44.30;19.10;;;-0.10;95.50;;;;;;5032208;28;20022;-90
2020/12/10 03:08:06;;;;;;;45.00;19.48;;;-0.10;95.50;;;;;;5021787;28;20028;-91
2020/12/10 03:10:31;;;;;;;45.78;19.30;;;-0.10;95.60;;;;;;5016437;28;20026;-90
2020/12/10 03:12:57;;;;;;;43.85;19.05;;;-0.10;95.60;;;;;;5029845;28;20362;-91
2020/12/10 03:15:23;;;;;;;47.65;18.70;;;-0.10;95.70;;;;;;5029816;28;20033;-90
2020/12/10 03:17:49;;;;;;;41.80;18.38;;;-0.10;95.70;;;;;;5024029;28;20061;-91
2020/12/10 03:20:16;;;;;;;41.30;18.45;;;-0.10;95.70;;;;;;5025163;28;20033;-91
2020/12/10 03:22:41;;;;;;;51.15;19.10;;;0.00;95.80;;;;;;5036818;28;20025;-90
2020/12/10 03:25:07;;;;;;;47.08;20.73;;;0.00;95.70;;;;;;5035336;28;20474;-91
2020/12/10 03:27:32;;;;;;;38.22;17.15;;;0.00;95.70;;;;;;5033150;28;20021;-91
2020/12/10 03:29:58;;;;;;;37.45;16.00;;;0.10;95.70;;;;;;5032290;28;20059;-91
2020/12/10 03:32:23;;;;;;;39.15;17.73;;;0.10;95.70;;;;;;5018151;28;20036;-91
2020/12/10 03:34:49;;;;;;;36.60;16.35;;;0.20;95.70;;;;;;5027291;28;20572;-92
2020/12/10 03:37:14;;;;;;;38.45;17.85;;;0.20;95.70;;;;;;5034286;28;20143;-91
2020/12/10 03:39:40;;;;;;;38.13;18.65;;;0.20;95.90;;;;;;5030790;28;20497;-91
2020/12/10 03:42:05;;;;;;;39.40;17.45;;;0.20;95.90;;;;;;5020102;28;20018;-90
2020/12/10 03:44:31;;;;;;;41.97;18.08;;;0.20;95.50;;;;;;5035540;28;20052;-91
2020/12/10 03:46:57;;;;;;;38.50;17.20;;;0.20;95.50;;;;;;5034988;28;20021;-91
2020/12/10 03:49:22;;;;;;;37.55;16.52;;;0.20;95.50;;;;;;5029489;28;20032;-92
2020/12/10 03:51:48;;;;;;;37.63;15.65;;;0.10;95.40;;;;;;5034509;28;20017;-91
2020/12/10 03:54:13;;;;;;;39.28;17.35;;;0.10;95.40;;;;;;5035301;28;20418;-90
2020/12/10 03:56:39;;;;;;;32.13;14.63;;;0.10;95.30;;;;;;5034259;28;20080;-91
2020/12/10 03:59:05;;;;;;;33.90;15.52;;;0.00;95.30;;;;;;5030328;28;20528;-91
2020/12/10 04:01:31;;;;;;;36.92;14.80;;;0.00;95.30;;;;;;5034462;28;20022;-92
2020/12/10 04:03:57;;;;;;;35.75;16.67;;;-0.10;95.30;;;;;;5024378;28;20025;-92
2020/12/10 04:06:22;;;;;;;35.92;15.18;;;-0.20;95.30;;;;;;5016607;28;20076;-92
2020/12/10 04:08:48;;;;;;;35.03;15.82;;;-0.20;95.30;;;;;;5034664;28;20390;-91
2020/12/10 04:11:14;;;;;;;41.50;16.77;;;-0.30;95.30;;;;;;5031685;28;20026;-91
2020/12/10 04:13:40;;;;;;;34.22;15.43;;;-0.40;95.40;;;;;;5034103;28;20029;-91
2020/12/10 04:16:06;;;;;;;32.78;14.95;;;-0.40;95.40;;;;;;5034943;28;20080;-91
2020/12/10 04:18:36;;;;;;;42.65;15.90;;;-0.50;95.50;;;;;;5019109;28;20026;-92
2020/12/10 04:21:02;;;;;;;38.33;16.90;;;-0.50;95.50;;;;;;5018757;28;20144;-91
2020/12/10 04:23:27;;;;;;;39.25;15.82;;;-0.50;95.50;;;;;;5017934;28;20022;-91
2020/12/10 04:25:54;;;;;;;35.38;15.15;;;-0.50;95.50;;;;;;5030962;28;20051;-90
2020/12/10 04:28:21;;;;;;;36.25;14.98;;;-0.60;95.50;;;;;;5015083;28;20049;-90
2020/12/10 04:30:46;;;;;;;36.85;16.67;;;-0.60;95.60;;;;;;5015676;28;20025;-91
2020/12/10 04:33:12;;;;;;;38.08;14.65;;;-0.60;95.60;;;;;;5027718;28;20394;-90
2020/12/10 04:35:38;;;;;;;39.00;15.57;;;-0.50;95.70;;;;;;5034772;28;20022;-91
2020/12/10 04:38:04;;;;;;;34.80;14.38;;;-0.50;95.80;;;;;;5027558;28;20033;-91
2020/12/10 04:40:31;;;;;;;38.13;16.20;;;-0.50;95.70;;;;;;5032612;28;20429;-91
2020/12/10 04:42:57;;;;;;;37.08;15.43;;;-0.50;95.70;;;;;;5034078;28;20041;-91
2020/12/10 04:45:26;;;;;;;40.30;17.02;;;-0.50;95.60;;;;;;5032956;28;20090;-95
2020/12/10 04:47:52;;;;;;;32.80;14.43;;;-0.50;95.60;;;;;;5019673;28;20397;-91
2020/12/10 04:50:23;;;;;;;34.22;13.85;;;-0.50;95.50;;;;;;5019147;28;20018;-91
2020/12/10 04:52:50;;;;;;;38.38;16.38;;;-0.50;95.50;;;;;;5023414;28;20499;-89
2020/12/10 04:55:16;;;;;;;35.50;16.70;;;-0.60;95.50;;;;;;5033128;28;20060;-91
2020/12/10 04:57:43;;;;;;;35.17;15.02;;;-0.60;95.50;;;;;;5032943;28;20136;-90
2020/12/10 05:00:13;;;;;;;40.65;16.52;;;-0.60;95.50;;;;;;5032840;28;20129;-90
2020/12/10 05:02:38;;;;;;;39.25;16.70;;;-0.70;95.50;;;;;;5023488;28;20026;-90
2020/12/10 05:05:39;;;;;;;41.45;17.33;;;-0.70;95.50;;;;;;5013937;28;20034;-90
2020/12/10 05:08:05;;;;;;;34.92;15.20;;;-0.70;95.50;;;;;;4987247;28;20513;-90
2020/12/10 05:10:44;;;;;;;42.15;17.10;;;-0.80;95.50;;;;;;5019220;28;20030;-91
2020/12/10 05:13:12;;;;;;;37.70;16.42;;;-0.90;95.60;;;;;;5021434;28;20546;-90
2020/12/10 05:15:38;;;;;;;44.25;17.70;;;-0.90;95.60;;;;;;5035376;28;20037;-91
2020/12/10 05:18:11;;;;;;;35.47;13.73;;;-0.90;95.60;;;;;;5026347;28;20029;-90
2020/12/10 05:20:41;;;;;;;;;;;-0.90;95.60;;;;;;5024292;28;20448;-90
2020/12/10 05:23:08;;;;;;;33.90;14.30;;;-0.90;95.60;;;;;;5026019;28;20329;-91
2020/12/10 05:25:53;;;;;;;33.67;14.25;;;-0.90;95.70;;;;;;5025120;28;20022;-90
2020/12/10 05:28:21;;;;;;;35.58;14.02;;;-0.90;95.70;;;;;;5033502;28;20631;-89
2020/12/10 05:31:13;;;;;;;39.90;14.75;;;-1.00;95.70;;;;;;5030941;28;20026;-90
2020/12/10 05:33:59;;;;;;;37.83;15.00;;;-0.90;95.80;;;;;;5027704;28;20121;-89
2020/12/10 05:36:30;;;;;;;39.28;16.70;;;-0.90;95.80;;;;;;5013774;28;20049;-89
2020/12/10 05:39:08;;;;;;;35.58;15.60;;;-0.90;95.80;;;;;;5026278;28;20053;-89
2020/12/10 05:41:42;;;;;;;39.42;15.43;;;-0.90;95.80;;;;;;5023927;28;20033;-89
2020/12/10 05:44:25;;;;;;;40.40;16.58;;;-0.90;95.70;;;;;;5033146;28;20627;-89
2020/12/10 05:47:04;;;;;;;38.47;16.08;;;-0.90;95.70;;;;;;5031112;28;20498;-89
2020/12/10 05:49:29;;;;;;;33.92;14.48;;;-0.90;95.80;;;;;;5032875;28;20128;-89
2020/12/10 05:52:02;;;;;;;39.45;17.20;;;-0.90;95.80;;;;;;5015734;28;20175;-89
2020/12/10 05:54:28;;;;;;;;;;;-0.80;95.80;;;;;;5017252;28;20059;-89
2020/12/10 05:57:07;;;;;;;37.53;14.50;;;-0.90;95.70;;;;;;5024172;28;19929;-89
2020/12/10 05:59:33;;;;;;;33.80;13.82;;;-0.90;95.70;;;;;;5021950;28;20034;-89
2020/12/10 06:02:04;;;;;;;36.22;15.68;;;-0.90;95.70;;;;;;5031229;28;20056;-89
2020/12/10 06:04:30;;;;;;;41.30;16.58;;;-0.90;95.70;;;;;;5032625;28;20030;-89
2020/12/10 06:06:57;;;;;;;41.78;17.25;;;-0.90;95.70;;;;;;5021693;28;20512;-89
2020/12/10 06:09:24;;;;;;;40.80;16.77;;;-0.90;95.70;;;;;;5024099;28;20052;-89
2020/12/10 06:11:59;;;;;;;44.45;17.80;;;-0.90;95.70;;;;;;5016206;28;20028;-89
2020/12/10 06:14:24;;;;;;;37.78;16.27;;;-0.90;95.70;;;;;;5013349;28;20120;-89
2020/12/10 06:17:07;;;;;;;44.67;19.17;;;-0.90;95.70;;;;;;5043261;28;20144;-89
2020/12/10 06:19:34;;;;;;;41.83;16.42;;;-0.90;95.80;;;;;;5032277;28;20389;-88
2020/12/10 06:22:25;;;;;;;41.15;16.25;;;-0.90;95.80;;;;;;5032913;28;20724;-89
2020/12/10 06:24:52;;;;;;;41.72;15.90;;;-0.90;95.70;;;;;;5032643;28;20029;-90
2020/12/10 06:27:23;;;;;;;46.70;19.30;;;-0.90;95.80;;;;;;5031124;28;20021;-90
2020/12/10 06:29:49;;;;;;;39.40;16.63;;;-0.90;95.80;;;;;;5032642;28;20022;-90
2020/12/10 06:32:17;;;;;;;42.00;17.33;;;-0.90;95.80;;;;;;5032468;28;20096;-90
2020/12/10 06:34:44;;;;;;;43.22;17.40;;;-0.90;95.80;;;;;;5032777;28;20053;-90
2020/12/10 06:37:19;;;;;;;40.38;17.85;;;-0.90;95.80;;;;;;5013775;28;20529;-90
2020/12/10 06:39:47;;;;;;;45.85;17.42;;;-0.90;95.80;;;;;;5031671;28;20025;-92
2020/12/10 06:42:12;;;;;;;37.30;15.57;;;-0.90;95.90;;;;;;5032528;28;20030;-91
2020/12/10 06:44:38;;;;;;;44.05;17.60;;;-0.80;95.90;;;;;;5024354;28;20046;-92
2020/12/10 06:47:04;;;;;;;46.28;18.25;;;-0.90;95.80;;;;;;5033147;28;20030;-91
2020/12/10 06:49:31;;;;;;;48.28;20.88;;;-0.80;95.90;;;;;;5029570;28;20030;-92
2020/12/10 06:52:13;;;;;;;43.13;17.75;;;-0.80;95.90;;;;;;5031258;28;20029;-92
2020/12/10 06:55:04;;;;;;;44.30;17.92;;;-0.70;95.90;;;;;;5034667;28;20039;-93
2020/12/10 06:57:52;;;;;;;48.05;18.65;;;-0.70;95.90;;;;;;5022137;28;20088;-92
2020/12/10 07:00:37;;;;;;;52.17;23.77;;;-0.70;95.90;;;;;;5027764;28;20028;-93
2020/12/10 07:03:20;;;;;;;52.15;22.33;;;-0.70;95.90;;;;;;5030720;28;20424;-93
2020/12/10 07:05:46;;;;;;;43.38;18.55;;;-0.70;95.90;;;;;;5030762;28;20025;-91
2020/12/10 07:08:15;;;;;;;54.40;19.52;;;-0.70;96.10;;;;;;5029985;28;20084;-91
2020/12/10 07:10:50;;;;;;;49.25;20.05;;;-0.70;96.10;;;;;;5026214;28;20041;-92
2020/12/10 07:13:17;;;;;;;49.55;21.13;;;-0.70;95.80;;;;;;5024464;28;20685;-91
2020/12/10 07:15:50;;;;;;;57.33;21.90;;;-0.60;95.90;;;;;;5032285;28;20041;-92
2020/12/10 07:18:15;;;;;;;;;;;-0.60;95.80;;;;;;5034984;28;20422;-92
2020/12/10 07:20:41;;;;;;;49.38;18.45;;;-0.60;95.80;;;;;;5021266;28;19959;-92
2020/12/10 07:23:07;;;;;;;51.67;19.75;;;-0.70;95.80;;;;;;5024885;28;20026;-91
2020/12/10 07:25:32;;;;;;;48.47;19.90;;;-0.70;95.80;;;;;;5034456;28;20398;-93
2020/12/10 07:27:59;;;;;;;49.88;18.48;;;-0.70;95.80;;;;;;5036362;28;20493;-92
2020/12/10 07:30:27;;;;;;;56.60;21.55;;;-0.60;95.80;;;;;;5032689;28;20052;-91
2020/12/10 07:32:54;;;;;;;51.90;20.60;;;-0.60;95.80;;;;;;5043661;28;20033;-93
2020/12/10 07:35:28;;;;;;;51.15;20.35;;;-0.60;95.80;;;;;;5034202;28;20061;-91
2020/12/10 07:37:54;;;;;;;52.53;20.85;;;-0.60;95.80;;;;;;5029240;28;20065;-91
2020/12/10 07:40:20;;;;;;;57.08;21.67;;;-0.60;95.80;;;;;;5030604;28;20049;-92
2020/12/10 07:42:46;;;;;;;56.75;22.40;;;-0.60;95.80;;;;;;5040744;28;20025;-92
2020/12/10 07:45:19;;;;;;;56.97;22.42;;;-0.60;95.80;;;;;;5035358;28;20026;-92
2020/12/10 07:47:55;;;;;;;57.67;21.92;;;-0.60;95.80;;;;;;5023782;28;20095;-91
2020/12/10 07:50:22;;;;;;;58.13;23.10;;;-0.50;95.80;;;;;;5025413;28;20026;-91
2020/12/10 07:52:49;;;;;;;56.15;22.75;;;-0.50;95.80;;;;;;5039948;28;20036;-92
2020/12/10 07:55:19;;;;;;;50.78;21.60;;;-0.50;95.80;;;;;;5047287;28;20129;-92
2020/12/10 07:58:00;;;;;;;52.72;21.80;;;-0.50;95.80;;;;;;5040015;28;20099;-91
2020/12/10 08:00:29;;;;;;;53.15;22.13;;;-0.40;95.80;;;;;;5034844;28;20033;-92
2020/12/10 08:02:59;;;;;;;60.17;23.15;;;-0.50;95.80;;;;;;5041078;28;20021;-92
2020/12/10 08:05:25;;;;;;;61.92;22.77;;;-0.40;95.80;;;;;;5039106;28;20029;-91
2020/12/10 08:07:53;;;;;;;55.15;22.50;;;-0.40;95.80;;;;;;5040307;28;20080;-92
2020/12/10 08:10:28;;;;;;;55.85;22.35;;;-0.40;95.80;;;;;;5037148;28;20060;-92
2020/12/10 08:13:16;;;;;;;56.53;22.00;;;-0.30;95.80;;;;;;5035321;28;20501;-92
2020/12/10 08:15:44;;;;;;;59.10;24.10;;;-0.30;95.80;;;;;;5031315;28;20033;-92
2020/12/10 08:18:13;;;;;;;59.72;22.98;;;-0.30;95.80;;;;;;5025169;28;20117;-93
2020/12/10 08:20:45;;;;;;;56.20;23.13;;;-0.30;95.70;;;;;;5034200;28;20026;-92
2020/12/10 08:23:12;;;;;;;57.88;23.30;;;-0.20;95.70;;;;;;5017355;28;20479;-92
2020/12/10 08:25:39;;;;;;;59.10;22.75;;;-0.10;95.70;;;;;;5032917;28;20040;-92
2020/12/10 08:28:06;;;;;;;55.45;22.75;;;-0.10;95.70;;;;;;5035939;28;20612;-92
2020/12/10 08:30:33;;;;;;;60.90;24.67;;;-0.10;95.70;;;;;;5036238;28;20028;-92
2020/12/10 08:33:00;;;;;;;58.15;24.20;;;0.00;95.70;;;;;;5036466;28;20025;-93
2020/12/10 08:35:27;;;;;;;55.40;23.25;;;0.00;95.60;;;;;;5034973;28;20034;-92
2020/12/10 08:37:53;;;;;;;59.00;23.90;;;0.10;95.60;;;;;;5037134;28;20021;-92
2020/12/10 08:40:26;;;;;;;55.67;23.27;;;0.00;95.60;;;;;;5020182;28;20033;-92
2020/12/10 08:42:56;;;;;;;54.22;22.60;;;0.10;95.60;;;;;;5034117;28;20033;-92
2020/12/10 08:45:33;;;;;;;49.85;22.13;;;0.10;95.60;;;;;;5030545;28;20694;-94
2020/12/10 08:48:02;;;;;;;53.38;22.52;;;0.20;95.60;;;;;;5021942;28;20030;-92
2020/12/10 08:50:29;;;;;;;60.90;22.95;;;0.20;95.60;;;;;;5034190;28;20025;-92
2020/12/10 08:53:05;;;;;;;51.70;22.95;;;0.30;95.50;;;;;;5022199;28;20030;-91
2020/12/10 08:55:48;;;;;;;54.33;23.50;;;0.30;95.50;;;;;;5031681;28;20021;-91
2020/12/10 08:58:19;;;;;;;;;;;0.30;95.40;;;;;;5020486;28;20029;-91
2020/12/10 09:00:52;;;;;;;52.90;21.65;;;0.30;95.40;;;;;;5028701;28;19927;-90
2020/12/10 09:03:19;;;;;;;54.08;22.27;;;0.30;95.40;;;;;;5031767;28;20045;-92
2020/12/10 09:05:44;;;;;;;53.40;21.52;;;0.40;95.50;;;;;;5028172;28;20026;-92
2020/12/10 09:08:11;;;;;;;54.13;23.17;;;0.40;95.40;;;;;;5023684;28;20540;-92
2020/12/10 09:10:37;;;;;;;54.85;23.48;;;0.50;95.40;;;;;;5034579;28;20112;-91
2020/12/10 09:13:03;;;;;;;51.42;23.13;;;0.50;95.30;;;;;;5024570;28;20386;-91
2020/12/10 09:15:29;;;;;;;51.75;22.13;;;0.50;95.20;;;;;;5030921;28;20036;-91
2020/12/10 09:17:55;;;;;;;52.75;22.67;;;0.50;95.20;;;;;;5032793;28;20033;-92
2020/12/10 09:20:21;;;;;;;55.90;24.95;;;0.50;95.30;;;;;;5028788;28;20025;-91
2020/12/10 09:22:47;;;;;;;58.38;24.10;;;0.50;95.40;;;;;;5030276;28;20026;-91
2020/12/10 09:25:12;;;;;;;53.95;25.15;;;0.60;95.30;;;;;;5022375;28;20032;-92
2020/12/10 09:27:39;;;;;;;51.58;21.77;;;0.60;95.30;;;;;;5032368;28;20028;-93
2020/12/10 09:30:06;;;;;;;54.60;23.73;;;0.60;95.30;;;;;;5022562;28;20509;-91
2020/12/10 09:32:34;;;;;;;57.55;25.90;;;0.70;95.20;;;;;;5030648;28;20499;-91
2020/12/10 09:35:05;;;;;;;55.05;24.00;;;0.70;95.10;;;;;;5034648;28;20030;-91
2020/12/10 09:37:31;;;;;;;55.45;24.48;;;0.70;95.10;;;;;;5031240;28;20033;-91
2020/12/10 09:39:57;;;;;;;54.72;23.48;;;0.70;95.10;;;;;;5030683;28;20053;-91
2020/12/10 09:42:22;;;;;;;54.53;24.48;;;0.80;95.10;;;;;;5040240;28;20025;-92
2020/12/10 09:44:48;;;;;;;61.65;25.38;;;0.80;95.10;;;;;;5035195;28;20037;-92
2020/12/10 09:47:14;;;;;;;59.85;24.65;;;0.80;95.10;;;;;;5034931;28;20026;-92
2020/12/10 09:49:40;;;;;;;58.47;25.55;;;0.90;95.10;;;;;;5029459;28;20033;-92
2020/12/10 09:52:06;;;;;;;59.65;25.58;;;0.90;95.10;;;;;;5032387;28;20068;-92
2020/12/10 09:57:07;;;;;;;56.00;23.65;;;0.90;95.00;;;;;;5020769;28;20533;-93
2020/12/10 09:59:36;;;;;;;55.38;23.25;;;1.00;95.00;;;;;;5015509;28;20057;-92
2020/12/10 10:02:03;;;;;;;56.80;24.75;;;0.90;94.90;;;;;;5030231;28;20022;-91
2020/12/10 10:04:30;;;;;;;52.00;23.23;;;1.00;94.90;;;;;;5023801;28;20022;-92
2020/12/10 10:06:55;;;;;;;51.33;23.27;;;0.90;94.90;;;;;;5026423;28;20052;-92
2020/12/10 10:09:22;;;;;;;56.92;25.63;;;0.90;94.90;;;;;;5030601;28;20466;-92
2020/12/10 10:11:48;;;;;;;55.20;22.60;;;1.00;94.90;;;;;;5024607;28;20478;-92
2020/12/10 10:14:13;;;;;;;53.50;24.38;;;1.00;94.90;;;;;;5035881;28;20035;-93
2020/12/10 10:16:39;;;;;;;56.25;24.92;;;1.00;94.90;;;;;;5034435;28;20040;-93
2020/12/10 10:19:05;;;;;;;51.28;23.38;;;1.00;94.90;;;;;;5028120;28;20034;-93
2020/12/10 10:21:31;;;;;;;51.60;24.27;;;1.00;94.90;;;;;;5024785;28;20117;-92
2020/12/10 10:23:57;;;;;;;53.17;24.08;;;1.10;94.90;;;;;;5032066;28;20037;-93
2020/12/10 10:26:23;;;;;;;53.58;23.95;;;1.10;94.90;;;;;;5029249;28;20026;-93
2020/12/10 10:28:51;;;;;;;53.80;24.65;;;1.10;94.80;;;;;;5024006;28;20018;-94
2020/12/10 10:31:17;;;;;;;49.45;23.65;;;1.10;94.80;;;;;;5031606;28;20485;-92
2020/12/10 10:33:43;;;;;;;50.58;23.85;;;1.10;95.00;;;;;;5028166;28;20120;-93
2020/12/10 10:36:10;;;;;;;52.53;23.00;;;1.10;94.70;;;;;;5031666;28;20033;-92
2020/12/10 10:38:39;;;;;;;47.50;21.90;;;1.10;94.70;;;;;;5033086;28;20026;-93
2020/12/10 10:41:04;;;;;;;59.20;25.35;;;1.10;94.70;;;;;;5032031;28;20025;-92
2020/12/10 10:43:30;;;;;;;50.25;23.48;;;1.20;94.80;;;;;;5029521;28;20045;-93
2020/12/10 10:45:56;;;;;;;54.13;23.92;;;1.20;94.80;;;;;;5023894;28;20101;-92
2020/12/10 10:48:22;;;;;;;50.10;22.17;;;1.30;94.70;;;;;;5028223;28;20484;-92
2020/12/10 10:50:47;;;;;;;52.90;24.15;;;1.30;94.70;;;;;;5025200;28;20036;-91
2020/12/10 10:53:13;;;;;;;47.97;23.33;;;1.30;94.60;;;;;;5017420;28;20022;-92
2020/12/10 10:55:38;;;;;;;54.65;24.00;;;1.30;94.60;;;;;;5028565;28;20026;-91
2020/12/10 10:58:04;;;;;;;55.20;25.20;;;1.40;94.60;;;;;;5027479;28;20084;-92
2020/12/10 11:00:30;;;;;;;56.40;24.20;;;1.40;94.50;;;;;;5033915;28;20040;-91
2020/12/10 11:02:58;;;;;;;51.38;24.00;;;1.40;94.50;;;;;;5031852;28;21633;-91
2020/12/10 11:05:24;;;;;;;54.03;23.98;;;1.40;94.40;;;;;;5031590;28;20494;-92
2020/12/10 11:07:49;;;;;;;56.03;24.60;;;1.40;94.40;;;;;;5033338;28;20061;-91
2020/12/10 11:10:21;;;;;;;55.47;24.70;;;1.50;94.40;;;;;;5031500;28;20033;-92
2020/12/10 11:12:47;;;;;;;57.77;26.87;;;1.40;94.40;;;;;;5034197;28;20032;-93
2020/12/10 11:15:13;;;;;;;53.40;24.63;;;1.50;94.40;;;;;;5027230;28;20022;-92
2020/12/10 11:17:39;;;;;;;55.42;25.30;;;1.50;94.40;;;;;;5036705;28;20531;-91
2020/12/10 11:20:05;;;;;;;53.38;25.00;;;1.50;94.40;;;;;;5036270;28;20040;-92
2020/12/10 11:22:33;;;;;;;55.33;24.73;;;1.50;94.40;;;;;;5034783;28;20024;-91
2020/12/10 11:24:59;;;;;;;58.72;26.63;;;1.60;94.40;;;;;;5031626;28;20036;-92
2020/12/10 11:27:24;;;;;;;51.25;23.55;;;1.60;94.40;;;;;;5037907;28;20037;-91
2020/12/10 11:29:50;;;;;;;58.15;26.55;;;1.60;94.40;;;;;;5015702;28;20076;-92
2020/12/10 11:32:15;;;;;;;53.55;24.35;;;1.70;94.30;;;;;;5035533;28;20095;-92
2020/12/10 11:34:41;;;;;;;57.58;26.38;;;1.70;94.30;;;;;;5034773;28;20026;-92
2020/12/10 11:37:07;;;;;;;54.63;26.92;;;1.80;94.30;;;;;;5027388;28;20068;-91
2020/12/10 11:39:32;;;;;;;53.85;25.02;;;1.80;94.30;;;;;;5035815;28;20477;-90
2020/12/10 11:41:58;;;;;;;59.40;26.08;;;1.80;94.20;;;;;;5030685;28;20056;-91
2020/12/10 11:44:23;;;;;;;57.78;27.02;;;1.80;94.30;;;;;;5028357;28;20046;-91
2020/12/10 11:46:49;;;;;;;55.55;25.80;;;1.90;94.30;;;;;;5020172;28;20079;-91
2020/12/10 11:49:15;;;;;;;51.58;23.48;;;1.90;94.20;;;;;;5016666;28;20102;-90
2020/12/10 11:51:40;;;;;;;51.35;23.55;;;2.00;94.50;;;;;;5036146;28;20037;-89
2020/12/10 11:54:06;;;;;;;49.95;23.63;;;2.10;94.20;;;;;;5033920;28;20021;-90
2020/12/10 11:56:31;;;;;;;55.67;25.50;;;2.10;94.10;;;;;;5034711;28;20044;-91
2020/12/10 11:58:57;;;;;;;52.35;25.27;;;2.20;94.00;;;;;;5033354;28;20025;-90
2020/12/10 12:01:23;;;;;;;52.97;25.88;;;2.20;93.90;;;;;;5033115;28;20565;-89
2020/12/10 12:03:48;;;;;;;51.97;24.30;;;2.20;93.90;;;;;;5030700;28;20108;-89
2020/12/10 12:06:16;;;;;;;48.70;23.95;;;2.30;93.90;;;;;;5036635;28;20104;-91
2020/12/10 12:08:41;;;;;;;54.20;25.45;;;2.30;93.80;;;;;;5032999;28;20018;-91
2020/12/10 12:11:07;;;;;;;51.53;24.60;;;2.30;93.80;;;;;;5028236;28;20121;-91
2020/12/10 12:13:32;;;;;;;50.30;23.65;;;2.30;93.70;;;;;;5026810;28;20026;-91
2020/12/10 12:15:58;;;;;;;51.58;25.17;;;2.30;93.70;;;;;;5028421;28;20034;-90
2020/12/10 12:18:26;;;;;;;52.90;24.33;;;2.30;93.70;;;;;;5034951;28;20032;-89
2020/12/10 12:20:52;;;;;;;55.03;26.73;;;2.30;93.70;;;;;;5034790;28;20021;-90
2020/12/10 12:23:17;;;;;;;49.15;24.30;;;2.30;93.70;;;;;;5025882;28;20037;-89
2020/12/10 12:25:43;;;;;;;50.80;25.05;;;2.40;93.70;;;;;;5031931;28;20083;-90
2020/12/10 12:28:08;;;;;;;47.42;23.15;;;2.40;93.70;;;;;;5034445;28;20152;-90
2020/12/10 12:30:34;;;;;;;49.92;25.02;;;2.40;93.60;;;;;;5034430;28;20390;-89
2020/12/10 12:33:01;;;;;;;53.38;24.92;;;2.30;93.60;;;;;;5034690;28;20029;-90
2020/12/10 12:35:27;;;;;;;50.60;24.05;;;2.30;93.60;;;;;;5034216;28;20025;-90
2020/12/10 12:37:52;;;;;;;48.08;23.60;;;2.40;93.60;;;;;;5034647;28;20052;-90